createdAt,value
2023-10-29T00:00:06.908Z,171.9
2023-10-29T00:05:38.900Z,154.9
2023-10-29T00:11:10.414Z,185.3
2023-10-29T00:16:42.429Z,177.7
2023-10-29T00:22:14.467Z,175.4
2023-10-29T00:27:45.782Z,167.0
2023-10-29T00:33:17.374Z,155.2
2023-10-29T00:38:49.278Z,214.7
2023-10-29T00:44:58.203Z,147.9
2023-10-29T00:49:56.772Z,165.7
2023-10-29T00:55:28.478Z,164.6
2023-10-29T01:01:00.219Z,163.9
2023-10-29T01:06:32.487Z,179.5
2023-10-29T01:12:03.652Z,177.0
2023-10-29T01:17:35.712Z,190.8
2023-10-29T01:23:07.126Z,156.4
2023-10-29T01:28:38.879Z,170.2
2023-10-29T01:34:10.976Z,157.4
2023-10-29T01:39:42.275Z,152.9
2023-10-29T01:45:14.333Z,147.5
2023-10-29T01:50:50.139Z,117.4
2023-10-29T01:56:21.866Z,244.9
2023-10-29T02:01:53.820Z,185.6
2023-10-29T02:07:51.342Z,147.8
2023-10-29T02:12:57.091Z,178.7
2023-10-29T02:18:29.048Z,125.5
2023-10-29T02:24:00.896Z,179.3
2023-10-29T02:29:32.162Z,92.7
2023-10-29T02:35:03.940Z,196.1
2023-10-29T02:40:35.631Z,176.7
2023-10-29T02:46:07.482Z,199.0
2023-10-29T02:51:43.675Z,178.6
2023-10-29T02:57:15.230Z,201.1
2023-10-29T03:02:47.034Z,162.7
2023-10-29T03:08:18.592Z,153.3
2023-10-29T03:13:50.400Z,223.3
2023-10-29T03:19:22.022Z,386.7
2023-10-29T03:24:53.985Z,202.2
2023-10-29T03:30:25.624Z,198.8
2023-10-29T03:35:57.418Z,164.3
2023-10-29T03:41:29.055Z,168.0
2023-10-29T03:47:00.738Z,178.1
2023-10-29T03:52:36.887Z,142.2
2023-10-29T03:58:08.598Z,175.1
2023-10-29T04:03:40.222Z,178.7
2023-10-29T04:09:12.048Z,182.9
2023-10-29T04:14:43.815Z,187.3
2023-10-29T04:20:15.537Z,170.0
2023-10-29T04:25:47.195Z,241.0
2023-10-29T04:31:18.865Z,146.2
2023-10-29T04:36:50.535Z,218.6
2023-10-29T04:42:22.285Z,197.7
2023-10-29T04:47:54.262Z,320.0
2023-10-29T04:53:30.281Z,172.9
2023-10-29T04:59:02.098Z,177.9
2023-10-29T05:04:33.539Z,170.2
2023-10-29T05:10:05.317Z,155.4
2023-10-29T05:15:37.078Z,152.7
2023-10-29T05:21:08.742Z,175.3
2023-10-29T05:26:40.447Z,176.1
2023-10-29T05:32:12.188Z,157.5
2023-10-29T05:37:43.912Z,179.6
2023-10-29T05:43:15.623Z,163.5
2023-10-29T05:48:47.481Z,171.7
2023-10-29T05:54:23.476Z,184.6
2023-10-29T05:59:55.222Z,162.3
2023-10-29T06:05:26.897Z,175.0
2023-10-29T06:10:58.788Z,167.8
2023-10-29T06:16:30.354Z,173.3
2023-10-29T06:22:02.102Z,170.5
2023-10-29T06:27:33.926Z,167.6
2023-10-29T06:33:05.565Z,158.2
2023-10-29T06:38:37.264Z,159.0
2023-10-29T06:44:09.534Z,148.4
2023-10-29T06:49:40.674Z,162.3
2023-10-29T06:55:16.847Z,149.9
2023-10-29T07:00:48.682Z,130.2
2023-10-29T07:06:20.278Z,164.6
2023-10-29T07:11:52.000Z,189.2
2023-10-29T07:17:24.116Z,149.3
2023-10-29T07:22:56.315Z,159.3
2023-10-29T07:28:27.140Z,199.7
2023-10-29T07:33:59.250Z,183.6
2023-10-29T07:39:30.640Z,176.5
2023-10-29T07:45:02.568Z,184.5
2023-10-29T07:50:34.251Z,166.3
2023-10-29T07:56:10.365Z,182.9
2023-10-29T08:01:42.392Z,178.0
2023-10-29T08:07:13.616Z,119.2
2023-10-29T08:12:45.525Z,119.1
2023-10-29T08:18:17.198Z,94.7
2023-10-29T08:23:49.007Z,126.7
2023-10-29T08:29:20.527Z,132.8
2023-10-29T08:34:52.393Z,102.6
2023-10-29T08:40:24.140Z,94.8
2023-10-29T08:45:55.790Z,88.5
2023-10-29T08:51:27.600Z,76.7
2023-10-29T08:57:03.614Z,95.3
2023-10-29T09:02:35.400Z,90.8
2023-10-29T09:08:07.187Z,79.3
2023-10-29T09:13:38.756Z,67.8
2023-10-29T09:19:10.635Z,49.7
2023-10-29T09:24:42.188Z,44.0
2023-10-29T09:30:14.164Z,71.9
2023-10-29T09:35:45.804Z,34.4
2023-10-29T09:41:17.536Z,149.1
2023-10-29T09:46:49.405Z,121.5
2023-10-29T09:52:20.808Z,153.7
2023-10-29T09:57:56.928Z,138.7
2023-10-29T10:03:28.778Z,132.9
2023-10-29T10:09:00.616Z,104.0
2023-10-29T10:14:32.167Z,134.4
2023-10-29T10:20:04.040Z,78.3
2023-10-29T10:25:35.552Z,60.7
2023-10-29T10:31:07.304Z,97.6
2023-10-29T10:36:39.031Z,182.2
2023-10-29T10:42:10.777Z,97.3
2023-10-29T10:47:42.525Z,89.4
2023-10-29T10:53:14.192Z,92.8
2023-10-29T10:58:50.261Z,138.0
2023-10-29T11:04:22.190Z,85.2
2023-10-29T11:09:53.771Z,63.9
2023-10-29T11:15:25.471Z,116.9
2023-10-29T11:20:57.223Z,91.4
2023-10-29T11:26:29.089Z,59.6
2023-10-29T11:32:01.008Z,55.8
2023-10-29T11:37:32.402Z,56.5
2023-10-29T11:43:04.131Z,48.9
2023-10-29T11:48:35.867Z,36.1
2023-10-29T11:54:07.570Z,29.3
2023-10-29T11:59:43.675Z,17.2
2023-10-29T12:05:15.506Z,21.6
2023-10-29T12:10:47.097Z,7.7
2023-10-29T12:16:18.979Z,9.8
2023-10-29T12:21:50.518Z,3.0
2023-10-29T12:27:22.422Z,2.7
2023-10-29T12:32:54.033Z,2.9
2023-10-29T12:38:25.715Z,5.4
2023-10-29T12:43:57.402Z,4.2
2023-10-29T12:49:29.337Z,1.9
2023-10-29T12:55:01.309Z,4.3
2023-10-29T13:00:37.087Z,3.4
2023-10-29T13:06:08.889Z,2.8
2023-10-29T13:11:40.509Z,9.8
2023-10-29T13:17:12.226Z,2.5
2023-10-29T13:22:45.809Z,2.4
2023-10-29T13:28:16.282Z,3.9
2023-10-29T13:33:47.408Z,4.5
2023-10-29T13:39:20.027Z,7.6
2023-10-29T13:44:50.775Z,8.7
2023-10-29T13:50:22.645Z,3.4
2023-10-29T13:55:54.383Z,5.1
2023-10-29T14:01:30.360Z,3.9
2023-10-29T14:07:02.291Z,10.3
2023-10-29T14:12:33.795Z,9.2
2023-10-29T14:18:05.793Z,10.0
2023-10-29T14:23:37.243Z,9.3
2023-10-29T14:29:08.995Z,8.2
2023-10-29T14:34:40.870Z,59.1
2023-10-29T14:40:12.537Z,26.1
2023-10-29T14:45:44.155Z,10.6
2023-10-29T14:51:16.081Z,6.6
2023-10-29T14:56:47.590Z,15.2
2023-10-29T15:02:23.696Z,41.0
2023-10-29T15:07:55.944Z,46.1
2023-10-29T15:13:27.179Z,61.9
2023-10-29T15:18:58.904Z,126.6
2023-10-29T15:24:30.775Z,120.9
2023-10-29T15:30:02.381Z,179.0
2023-10-29T15:35:34.173Z,202.3
2023-10-29T15:41:05.793Z,218.9
2023-10-29T15:46:38.249Z,247.9
2023-10-29T15:52:09.231Z,231.6
2023-10-29T15:57:40.972Z,207.1
2023-10-29T16:03:19.146Z,229.6
2023-10-29T16:08:50.759Z,213.3
2023-10-29T16:14:22.460Z,205.5
2023-10-29T16:19:54.302Z,227.5
2023-10-29T16:25:26.013Z,205.0
2023-10-29T16:30:58.184Z,212.1
2023-10-29T16:36:29.591Z,184.3
2023-10-29T16:42:01.349Z,203.3
2023-10-29T16:47:32.854Z,188.3
2023-10-29T16:53:04.712Z,188.9
2023-10-29T16:58:36.463Z,186.9
2023-10-29T17:04:14.507Z,134.4
2023-10-29T17:09:46.255Z,120.7
2023-10-29T17:15:18.000Z,90.5
2023-10-29T17:20:49.554Z,38.9
2023-10-29T17:26:21.288Z,43.0
2023-10-29T17:31:52.982Z,37.0
2023-10-29T17:37:24.729Z,46.1
2023-10-29T17:42:56.454Z,49.1
2023-10-29T17:48:30.051Z,8.9
2023-10-29T17:53:59.924Z,10.4
2023-10-29T17:59:31.756Z,12.3
2023-10-29T18:05:07.714Z,6.7
2023-10-29T18:10:39.594Z,13.6
2023-10-29T18:16:11.318Z,13.9
2023-10-29T18:21:42.897Z,26.3
2023-10-29T18:27:14.923Z,62.5
2023-10-29T18:32:46.319Z,23.7
2023-10-29T18:38:18.246Z,21.0
2023-10-29T18:43:49.710Z,26.0
2023-10-29T18:49:21.455Z,13.8
2023-10-29T18:54:53.200Z,35.5
2023-10-29T19:00:25.045Z,19.4
2023-10-29T19:06:01.087Z,30.9
2023-10-29T19:11:32.737Z,41.1
2023-10-29T19:17:04.445Z,18.9
2023-10-29T19:22:36.319Z,13.1
2023-10-29T19:28:08.102Z,16.3
2023-10-29T19:33:39.803Z,12.0
2023-10-29T19:39:11.389Z,12.7
2023-10-29T19:44:43.339Z,10.6
2023-10-29T19:50:17.084Z,10.9
2023-10-29T19:55:46.496Z,11.9
2023-10-29T20:01:18.251Z,12.7
2023-10-29T20:06:54.372Z,10.9
2023-10-29T20:12:26.574Z,10.4
2023-10-29T20:17:58.003Z,11.8
2023-10-29T20:23:29.712Z,10.4
2023-10-29T20:29:01.413Z,6.6
2023-10-29T20:34:33.017Z,6.3
2023-10-29T20:40:04.704Z,9.9
2023-10-29T20:45:36.587Z,4.4
2023-10-29T20:51:08.357Z,7.8
2023-10-29T20:56:40.023Z,5.5
2023-10-29T21:02:11.647Z,11.2
2023-10-29T21:07:47.945Z,8.4
2023-10-29T21:13:19.597Z,9.8
2023-10-29T21:18:51.206Z,9.5
2023-10-29T21:24:23.113Z,10.6
2023-10-29T21:29:54.588Z,12.2
2023-10-29T21:35:26.353Z,9.9
2023-10-29T21:40:58.602Z,7.8
2023-10-29T21:46:29.922Z,8.4
2023-10-29T21:52:01.534Z,10.8
2023-10-29T21:57:33.279Z,7.0
2023-10-29T22:03:05.083Z,12.6
2023-10-29T22:08:41.065Z,6.9
2023-10-29T22:14:13.040Z,8.9
2023-10-29T22:19:44.719Z,6.4
2023-10-29T22:25:16.241Z,6.1
2023-10-29T22:30:48.238Z,6.3
2023-10-29T22:36:19.735Z,7.4
2023-10-29T22:41:51.683Z,5.1
2023-10-29T22:47:23.151Z,5.5
2023-10-29T22:52:54.866Z,5.8
2023-10-29T22:58:26.754Z,6.9
2023-10-29T23:03:58.559Z,9.9
2023-10-29T23:09:34.459Z,6.3
2023-10-29T23:15:06.170Z,4.7
2023-10-29T23:20:38.661Z,11.9
2023-10-29T23:26:09.587Z,7.3
2023-10-29T23:31:41.369Z,10.7
2023-10-29T23:37:13.788Z,8.6
2023-10-29T23:42:44.778Z,10.3
2023-10-29T23:48:16.475Z,9.1
2023-10-29T23:53:48.204Z,10.1
2023-10-29T23:59:19.989Z,12.2
